createdAt,value
2017-10-14T00:01:58.923Z,9.90
2017-10-14T00:04:28.738Z,11.10
2017-10-14T00:06:57.019Z,11.70
2017-10-14T00:09:25.371Z,9.87
2017-10-14T00:11:54.410Z,10.23
2017-10-14T00:14:22.691Z,10.70
2017-10-14T00:16:51.029Z,8.90
2017-10-14T00:19:20.245Z,10.20
2017-10-14T00:21:48.935Z,11.33
2017-10-14T00:24:17.285Z,11.17
2017-10-14T00:26:45.566Z,9.60
2017-10-14T00:29:14.979Z,9.87
2017-10-14T00:31:43.302Z,13.23
2017-10-14T00:34:12.347Z,10.17
2017-10-14T00:36:40.635Z,10.73
2017-10-14T00:39:10.094Z,13.63
2017-10-14T00:41:38.417Z,10.00
2017-10-14T00:44:06.699Z,11.27
2017-10-14T00:46:35.027Z,11.50
2017-10-14T00:52:05.207Z,10.40
2017-10-14T00:54:34.262Z,13.03
2017-10-14T00:57:03.310Z,11.37
2017-10-14T00:59:32.411Z,11.00
2017-10-14T01:02:01.465Z,10.63
2017-10-14T01:04:30.882Z,10.90
2017-10-14T01:06:59.626Z,15.20
2017-10-14T01:09:27.926Z,11.37
2017-10-14T01:11:56.974Z,13.50
2017-10-14T01:14:26.067Z,11.10
2017-10-14T01:16:54.363Z,12.10
2017-10-14T01:19:23.786Z,12.53
2017-10-14T01:21:54.238Z,11.87
2017-10-14T01:24:22.539Z,10.63
2017-10-14T01:26:50.835Z,10.80
2017-10-14T01:29:19.198Z,13.30
2017-10-14T01:31:47.899Z,13.80
2017-10-14T01:34:16.971Z,11.77
2017-10-14T01:36:46.063Z,11.50
2017-10-14T01:39:14.357Z,11.43
2017-10-14T01:41:42.663Z,12.33
2017-10-14T01:44:10.995Z,13.30
2017-10-14T01:46:39.288Z,13.13
2017-10-14T01:49:07.571Z,12.17
2017-10-14T01:51:35.921Z,12.43
2017-10-14T01:54:04.983Z,12.30
2017-10-14T01:56:34.622Z,15.67
2017-10-14T01:59:03.630Z,12.57
2017-10-14T02:01:33.267Z,13.10
2017-10-14T02:04:01.822Z,12.30
2017-10-14T02:06:30.167Z,11.57
2017-10-14T02:08:58.449Z,10.80
2017-10-14T02:11:26.728Z,11.57
2017-10-14T02:13:56.425Z,14.17
2017-10-14T02:16:25.727Z,12.70
2017-10-14T02:18:55.367Z,13.10
2017-10-14T02:21:24.757Z,21.00
2017-10-14T02:23:54.178Z,11.27
2017-10-14T02:26:22.470Z,12.37
2017-10-14T02:28:50.799Z,13.27
2017-10-14T02:31:19.102Z,13.13
2017-10-14T02:33:47.385Z,11.20
2017-10-14T02:36:15.719Z,13.20
2017-10-14T02:38:45.135Z,10.13
2017-10-14T02:41:13.422Z,11.10
2017-10-14T02:43:42.148Z,9.80
2017-10-14T02:46:11.937Z,10.57
2017-10-14T02:48:40.214Z,21.77
2017-10-14T02:51:09.695Z,10.03
2017-10-14T02:53:38.374Z,12.30
2017-10-14T02:56:07.794Z,12.17
2017-10-14T02:58:36.910Z,12.07
2017-10-14T03:01:05.967Z,10.50
2017-10-14T03:03:34.250Z,11.90
2017-10-14T03:06:02.581Z,12.67
2017-10-14T03:08:30.862Z,13.27
2017-10-14T03:10:59.166Z,12.83
2017-10-14T03:13:27.518Z,14.13
2017-10-14T03:15:56.575Z,10.97
2017-10-14T03:18:25.627Z,12.43
2017-10-14T03:20:53.963Z,11.90
2017-10-14T03:23:23.011Z,12.70
2017-10-14T03:25:51.691Z,11.50
2017-10-14T03:28:20.042Z,12.23
2017-10-14T03:30:48.327Z,12.90
2017-10-14T03:33:17.394Z,17.03
2017-10-14T03:35:46.506Z,11.67
2017-10-14T03:38:15.563Z,12.43
2017-10-14T03:40:43.851Z,11.77
2017-10-14T03:43:12.189Z,13.37
2017-10-14T03:45:41.978Z,11.67
2017-10-14T03:48:10.263Z,13.33
2017-10-14T03:50:39.014Z,16.77
2017-10-14T03:53:07.294Z,12.33
2017-10-14T03:55:36.350Z,11.80
2017-10-14T03:58:04.702Z,19.40
2017-10-14T04:00:32.990Z,13.23
2017-10-14T04:03:01.279Z,11.97
2017-10-14T04:05:31.142Z,11.53
2017-10-14T04:07:59.820Z,12.13
2017-10-14T04:10:29.618Z,12.90
2017-10-14T04:12:57.970Z,12.77
2017-10-14T04:15:27.392Z,13.10
2017-10-14T04:17:56.463Z,12.83
2017-10-14T04:20:26.406Z,12.30
2017-10-14T04:22:55.742Z,13.80
2017-10-14T04:25:24.054Z,15.10
2017-10-14T04:27:52.370Z,12.77
2017-10-14T04:30:20.782Z,17.60
2017-10-14T04:32:49.871Z,12.97
2017-10-14T04:35:18.193Z,11.97
2017-10-14T04:37:46.536Z,14.43
2017-10-14T04:40:14.878Z,14.27
2017-10-14T04:42:43.190Z,12.53
2017-10-14T04:45:11.485Z,20.13
2017-10-14T04:47:39.807Z,14.33
2017-10-14T04:50:09.290Z,11.87
2017-10-14T04:52:37.575Z,13.93
2017-10-14T04:55:05.912Z,14.17
2017-10-14T04:57:34.243Z,12.87
2017-10-14T05:00:03.309Z,14.77
2017-10-14T05:02:32.774Z,13.37
2017-10-14T05:05:01.490Z,16.40
2017-10-14T05:07:29.790Z,14.90
2017-10-14T05:09:58.550Z,17.27
2017-10-14T05:12:28.006Z,12.47
2017-10-14T05:14:56.298Z,15.07
2017-10-14T05:17:24.623Z,14.80
2017-10-14T05:19:52.911Z,14.37
2017-10-14T05:22:21.194Z,17.93
2017-10-14T05:24:49.518Z,18.93
2017-10-14T05:27:18.943Z,18.20
2017-10-14T05:29:47.235Z,14.67
2017-10-14T05:32:15.607Z,14.93
2017-10-14T05:34:43.891Z,17.13
2017-10-14T05:37:12.943Z,14.70
2017-10-14T05:39:42.041Z,14.07
2017-10-14T05:42:10.324Z,15.27
2017-10-14T05:44:39.378Z,15.00
2017-10-14T05:47:09.068Z,12.93
2017-10-14T05:49:37.622Z,16.77
2017-10-14T05:52:07.425Z,11.73
2017-10-14T05:54:35.792Z,19.70
2017-10-14T05:57:04.847Z,13.73
2017-10-14T05:59:33.902Z,13.90
2017-10-14T06:02:02.994Z,13.60
2017-10-14T06:04:31.280Z,13.83
2017-10-14T06:07:00.706Z,15.10
2017-10-14T06:09:29.086Z,13.90
2017-10-14T06:11:57.374Z,13.47
2017-10-14T06:14:25.672Z,16.33
2017-10-14T06:16:55.076Z,12.77
2017-10-14T06:19:23.758Z,13.10
2017-10-14T06:21:52.046Z,14.83
2017-10-14T06:24:21.712Z,14.93
2017-10-14T06:26:51.006Z,14.50
2017-10-14T06:29:19.326Z,16.07
2017-10-14T06:31:47.654Z,19.57
2017-10-14T06:34:15.942Z,16.60
2017-10-14T06:36:44.232Z,15.60
2017-10-14T06:39:12.591Z,17.37
2017-10-14T06:41:40.883Z,18.03
2017-10-14T06:44:09.955Z,17.73
2017-10-14T06:46:38.326Z,15.43
2017-10-14T06:49:07.015Z,15.53
2017-10-14T06:51:36.802Z,23.60
2017-10-14T06:54:05.158Z,14.30
2017-10-14T06:56:34.795Z,11.77
2017-10-14T06:59:03.359Z,14.33
2017-10-14T07:01:31.691Z,12.87
2017-10-14T07:03:59.983Z,10.77
2017-10-14T07:06:29.031Z,11.23
2017-10-14T07:08:57.386Z,12.47
2017-10-14T07:11:25.675Z,11.23
2017-10-14T07:13:53.959Z,11.93
2017-10-14T07:16:23.432Z,14.20
2017-10-14T07:18:51.706Z,12.27
2017-10-14T07:21:19.991Z,10.63
2017-10-14T07:23:48.326Z,11.47
2017-10-14T07:26:16.609Z,12.00
2017-10-14T07:28:44.899Z,11.90
2017-10-14T07:31:13.239Z,14.37
2017-10-14T07:33:43.038Z,12.83
2017-10-14T07:36:11.323Z,11.70
2017-10-14T07:38:41.161Z,12.03
2017-10-14T07:41:09.454Z,12.60
2017-10-14T07:43:38.518Z,16.00
2017-10-14T07:46:06.871Z,11.27
2017-10-14T07:51:37.127Z,11.83
2017-10-14T07:54:05.406Z,13.00
2017-10-14T07:56:33.696Z,16.17
2017-10-14T07:59:02.018Z,13.73
2017-10-14T08:01:30.317Z,12.50
2017-10-14T08:03:58.608Z,15.60
2017-10-14T08:06:27.976Z,14.00
2017-10-14T08:08:56.259Z,12.93
2017-10-14T08:11:24.538Z,12.63
2017-10-14T08:13:52.874Z,13.03
2017-10-14T08:16:21.154Z,12.93
2017-10-14T08:18:50.727Z,13.47
2017-10-14T08:21:19.089Z,10.93
2017-10-14T08:23:47.369Z,12.97
2017-10-14T08:26:15.665Z,14.20
2017-10-14T08:28:44.904Z,12.37
2017-10-14T08:31:14.703Z,11.80
2017-10-14T08:33:42.994Z,11.20
2017-10-14T08:36:12.844Z,11.17
2017-10-14T08:38:41.127Z,10.70
2017-10-14T08:41:09.830Z,11.70
2017-10-14T08:43:38.172Z,10.70
2017-10-14T08:46:07.229Z,12.67
2017-10-14T08:48:35.923Z,11.73
2017-10-14T08:51:04.260Z,16.33
2017-10-14T08:53:32.539Z,10.83
2017-10-14T08:56:00.814Z,9.20
2017-10-14T08:58:30.630Z,10.60
2017-10-14T09:00:58.910Z,10.67
2017-10-14T09:03:28.315Z,10.57
2017-10-14T09:05:57.429Z,9.93
2017-10-14T09:08:26.475Z,10.27
2017-10-14T09:10:54.754Z,10.07
2017-10-14T09:13:23.090Z,14.20
2017-10-14T09:15:52.880Z,9.53
2017-10-14T09:18:21.182Z,9.30
2017-10-14T09:20:50.858Z,9.50
2017-10-14T09:23:19.771Z,9.80
2017-10-14T09:25:48.057Z,9.60
2017-10-14T09:28:17.523Z,9.67
2017-10-14T09:30:45.799Z,9.53
2017-10-14T09:33:15.424Z,10.10
2017-10-14T09:35:44.020Z,10.43
2017-10-14T09:38:12.307Z,9.30
2017-10-14T09:40:40.582Z,10.53
2017-10-14T09:43:08.911Z,9.30
2017-10-14T09:45:37.955Z,8.87
2017-10-14T09:48:06.226Z,11.57
2017-10-14T09:50:35.902Z,10.17
2017-10-14T09:53:04.458Z,10.07
2017-10-14T09:55:34.078Z,11.80
2017-10-14T09:58:02.679Z,11.10
2017-10-14T10:00:30.955Z,10.00
2017-10-14T10:02:59.231Z,9.60
2017-10-14T10:05:27.810Z,9.60
2017-10-14T10:07:57.219Z,13.50
2017-10-14T10:10:25.492Z,9.90
2017-10-14T10:12:53.802Z,10.70
2017-10-14T10:15:22.082Z,10.27
2017-10-14T10:17:51.929Z,9.30
2017-10-14T10:20:20.119Z,9.80
2017-10-14T10:22:48.394Z,8.23
2017-10-14T10:25:17.810Z,7.60
2017-10-14T10:27:47.202Z,8.13
2017-10-14T10:30:16.976Z,9.73
2017-10-14T10:32:46.013Z,9.80
2017-10-14T10:35:15.733Z,11.30
2017-10-14T10:37:45.264Z,10.90
2017-10-14T10:40:14.550Z,9.00
2017-10-14T10:42:42.907Z,10.57
2017-10-14T10:45:12.692Z,10.93
2017-10-14T10:47:40.958Z,9.30
2017-10-14T10:50:09.323Z,9.60
2017-10-14T10:52:39.126Z,10.60
2017-10-14T10:55:07.411Z,13.07
2017-10-14T10:57:35.882Z,7.63
2017-10-14T11:00:05.510Z,7.90
2017-10-14T11:02:34.054Z,8.90
2017-10-14T11:05:03.750Z,8.53
2017-10-14T11:07:32.654Z,9.60
2017-10-14T11:10:01.699Z,9.00
2017-10-14T11:12:31.374Z,7.53
2017-10-14T11:14:59.917Z,9.47
2017-10-14T11:17:28.190Z,8.30
2017-10-14T11:19:56.509Z,11.00
2017-10-14T11:22:24.782Z,7.90
2017-10-14T11:24:53.053Z,8.13
2017-10-14T11:27:22.521Z,8.60
2017-10-14T11:29:50.786Z,7.40
2017-10-14T11:32:19.832Z,7.03
2017-10-14T11:34:48.174Z,7.07
2017-10-14T11:37:17.206Z,6.90
2017-10-14T11:39:48.044Z,7.43
2017-10-14T11:42:16.313Z,7.60
2017-10-14T11:44:46.093Z,6.73
2017-10-14T11:47:14.418Z,8.13
2017-10-14T11:49:44.047Z,6.90
2017-10-14T11:52:12.590Z,7.17
2017-10-14T11:54:40.907Z,7.50
2017-10-14T11:57:09.938Z,6.27
2017-10-14T11:59:38.214Z,5.10
2017-10-14T12:02:06.537Z,4.03
2017-10-14T12:04:34.811Z,3.83
2017-10-14T12:07:03.090Z,4.30
2017-10-14T12:09:32.537Z,6.27
2017-10-14T12:12:01.206Z,5.20
2017-10-14T12:14:29.483Z,4.43
2017-10-14T12:16:57.798Z,3.50
2017-10-14T12:19:27.207Z,3.63
2017-10-14T12:21:55.477Z,3.47
2017-10-14T12:24:25.150Z,4.93
2017-10-14T12:26:54.066Z,2.97
2017-10-14T12:29:22.337Z,3.57
2017-10-14T12:31:51.427Z,3.50
2017-10-14T12:34:20.465Z,4.53
2017-10-14T12:36:50.090Z,3.57
2017-10-14T12:39:19.825Z,3.03
2017-10-14T12:41:48.098Z,4.23
2017-10-14T12:44:16.370Z,3.50
2017-10-14T12:46:44.687Z,4.50
2017-10-14T12:49:12.957Z,9.30
2017-10-14T12:51:41.238Z,5.50
2017-10-14T12:54:10.687Z,3.70
2017-10-14T12:56:40.307Z,4.60
2017-10-14T12:59:08.849Z,3.73
2017-10-14T13:01:37.552Z,5.83
2017-10-14T13:04:05.827Z,4.00
2017-10-14T13:06:35.454Z,2.90
2017-10-14T13:09:04.070Z,3.50
2017-10-14T13:11:33.486Z,3.40
2017-10-14T13:14:02.162Z,3.30
2017-10-14T13:16:30.471Z,3.83
2017-10-14T13:18:59.511Z,4.03
2017-10-14T13:21:29.134Z,4.63
2017-10-14T13:23:58.666Z,3.30
2017-10-14T13:26:27.954Z,5.80
2017-10-14T13:28:56.234Z,3.43
2017-10-14T13:31:26.177Z,3.60
2017-10-14T13:33:54.326Z,3.20
2017-10-14T13:36:22.594Z,5.23
2017-10-14T13:38:50.934Z,4.70
2017-10-14T13:41:19.206Z,5.10
2017-10-14T13:43:47.486Z,5.23
2017-10-14T13:46:15.803Z,4.93
2017-10-14T13:48:45.582Z,4.70
2017-10-14T13:51:13.853Z,4.83
2017-10-14T13:53:42.174Z,5.80
2017-10-14T13:56:11.210Z,3.10
2017-10-14T13:58:39.478Z,4.90
2017-10-14T14:01:09.147Z,3.07
2017-10-14T14:03:37.690Z,3.07
2017-10-14T14:06:05.967Z,4.10
2017-10-14T14:08:34.306Z,3.63
2017-10-14T14:11:02.574Z,4.13
2017-10-14T14:13:30.846Z,4.23
2017-10-14T14:15:59.165Z,4.00
2017-10-14T14:18:28.207Z,3.70
2017-10-14T14:20:57.825Z,1.97
2017-10-14T14:23:27.550Z,2.93
2017-10-14T14:25:56.964Z,3.47
2017-10-14T14:28:25.234Z,3.50
2017-10-14T14:30:53.554Z,3.83
2017-10-14T14:33:21.839Z,4.43
2017-10-14T14:35:50.106Z,4.10
2017-10-14T14:38:19.229Z,3.57
2017-10-14T14:40:48.287Z,2.80
2017-10-14T14:43:17.327Z,5.97
2017-10-14T14:45:47.029Z,5.47
2017-10-14T14:48:15.570Z,5.83
2017-10-14T14:50:43.845Z,4.00
2017-10-14T14:53:12.153Z,3.57
2017-10-14T14:55:40.434Z,3.27
2017-10-14T14:58:10.215Z,2.50
2017-10-14T15:00:38.534Z,3.37
2017-10-14T15:03:08.310Z,5.23
2017-10-14T15:05:37.361Z,2.97
2017-10-14T15:08:07.466Z,2.60
2017-10-14T15:10:37.247Z,6.20
2017-10-14T15:13:05.526Z,3.20
2017-10-14T15:15:33.846Z,2.83
2017-10-14T15:18:02.118Z,3.87
2017-10-14T15:20:31.150Z,2.37
2017-10-14T15:23:00.543Z,3.50
2017-10-14T15:25:29.212Z,2.83
2017-10-14T15:27:57.492Z,3.57
2017-10-14T15:30:27.439Z,4.60
2017-10-14T15:32:57.265Z,3.13
2017-10-14T15:35:25.803Z,2.80
2017-10-14T15:37:54.119Z,3.87
2017-10-14T15:40:22.391Z,3.20
2017-10-14T15:42:50.671Z,2.90
2017-10-14T15:45:20.512Z,3.13
2017-10-14T15:47:50.138Z,3.20
2017-10-14T15:50:19.055Z,3.03
2017-10-14T15:52:48.759Z,3.07
2017-10-14T15:55:18.254Z,3.73
2017-10-14T15:57:47.546Z,2.57
2017-10-14T16:00:15.856Z,3.70
2017-10-14T16:02:44.133Z,4.40
2017-10-14T16:05:13.176Z,13.20
2017-10-14T16:07:41.498Z,7.53
2017-10-14T16:10:11.276Z,6.20
2017-10-14T16:12:39.554Z,2.80
2017-10-14T16:15:07.903Z,3.03
2017-10-14T16:17:37.678Z,3.23
2017-10-14T16:20:06.354Z,3.63
2017-10-14T16:22:34.695Z,3.23
2017-10-14T16:25:02.967Z,2.73
2017-10-14T16:27:32.602Z,3.00
2017-10-14T16:30:01.209Z,2.97
2017-10-14T16:32:30.990Z,2.57
2017-10-14T16:34:59.253Z,5.53
2017-10-14T16:37:27.612Z,3.63
2017-10-14T16:39:57.233Z,3.20
2017-10-14T16:42:25.781Z,3.30
2017-10-14T16:44:54.898Z,4.03
2017-10-14T16:47:23.169Z,5.67
2017-10-14T16:49:51.464Z,5.23
2017-10-14T16:52:21.427Z,4.40
2017-10-14T16:54:51.051Z,3.73
2017-10-14T16:57:18.631Z,6.93
2017-10-14T16:59:45.027Z,3.30
2017-10-14T17:02:12.514Z,3.03
2017-10-14T17:04:38.851Z,3.73
2017-10-14T17:07:05.214Z,4.17
2017-10-14T17:09:33.246Z,5.47
2017-10-14T17:12:01.111Z,4.07
2017-10-14T17:14:27.467Z,5.00
2017-10-14T17:16:53.806Z,4.27
2017-10-14T17:19:20.128Z,4.70
2017-10-14T17:21:47.242Z,4.10
2017-10-14T17:24:14.310Z,4.23
2017-10-14T17:26:41.400Z,4.07
2017-10-14T17:29:07.769Z,4.23
2017-10-14T17:31:35.802Z,5.83
2017-10-14T17:34:03.858Z,4.20
2017-10-14T17:36:30.214Z,3.87
2017-10-14T17:38:56.519Z,4.43
2017-10-14T17:41:22.822Z,4.63
2017-10-14T17:43:49.178Z,4.47
2017-10-14T17:46:16.266Z,6.23
2017-10-14T17:48:43.340Z,5.70
2017-10-14T17:51:11.453Z,5.20
2017-10-14T17:53:38.870Z,4.93
2017-10-14T17:56:05.179Z,5.87
2017-10-14T17:58:33.268Z,5.03
2017-10-14T18:00:59.586Z,6.20
2017-10-14T18:03:27.638Z,5.50
2017-10-14T18:05:55.086Z,5.97
2017-10-14T18:08:21.414Z,7.23
2017-10-14T18:10:49.600Z,6.27
2017-10-14T18:13:17.681Z,6.00
2017-10-14T18:15:45.487Z,7.07
2017-10-14T18:18:11.819Z,7.53
2017-10-14T18:20:39.923Z,5.97
2017-10-14T18:23:07.975Z,9.73
2017-10-14T18:25:35.063Z,10.03
2017-10-14T18:28:02.146Z,12.57
2017-10-14T18:30:30.208Z,7.53
2017-10-14T18:32:56.535Z,6.90
2017-10-14T18:35:22.902Z,8.40
2017-10-14T18:37:49.219Z,6.73
2017-10-14T18:40:15.771Z,6.23
2017-10-14T18:42:43.627Z,8.63
2017-10-14T18:45:09.979Z,8.87
2017-10-14T18:47:37.047Z,9.07
2017-10-14T18:50:05.135Z,8.67
2017-10-14T18:52:31.477Z,7.40
2017-10-14T18:54:59.303Z,8.20
2017-10-14T18:57:25.707Z,7.73
2017-10-14T18:59:52.087Z,8.80
2017-10-14T19:02:20.138Z,12.10
2017-10-14T19:04:48.016Z,10.53
2017-10-14T19:07:14.371Z,7.93
2017-10-14T19:09:40.699Z,9.43
2017-10-14T19:12:07.139Z,9.70
2017-10-14T19:14:34.578Z,7.77
2017-10-14T19:17:00.890Z,8.30
2017-10-14T19:19:27.246Z,7.30
2017-10-14T19:21:53.579Z,7.70
2017-10-14T19:24:21.398Z,8.97
2017-10-14T19:26:47.836Z,9.50
2017-10-14T19:29:14.902Z,8.10
2017-10-14T19:31:42.962Z,10.30
2017-10-14T19:34:09.322Z,9.60
2017-10-14T19:36:35.652Z,9.97
2017-10-14T19:39:03.536Z,10.40
2017-10-14T19:41:29.919Z,10.03
2017-10-14T19:43:56.243Z,9.93
2017-10-14T19:46:22.575Z,9.90
2017-10-14T19:48:50.690Z,9.50
2017-10-14T19:51:18.142Z,9.43
2017-10-14T19:53:46.205Z,11.50
2017-10-14T19:56:14.318Z,15.00
2017-10-14T19:58:42.375Z,12.93
2017-10-14T20:01:09.063Z,13.07
2017-10-14T20:03:35.502Z,13.00
2017-10-14T20:06:03.573Z,16.00
2017-10-14T20:08:29.910Z,15.80
2017-10-14T20:10:57.040Z,16.83
2017-10-14T20:13:24.958Z,13.70
2017-10-14T20:15:51.280Z,14.10
2017-10-14T20:18:19.386Z,14.97
2017-10-14T20:20:45.720Z,15.47
2017-10-14T20:23:12.031Z,17.43
2017-10-14T20:25:39.502Z,15.47
2017-10-14T20:28:05.826Z,14.63
2017-10-14T20:30:32.159Z,16.67
2017-10-14T20:32:58.538Z,14.67
2017-10-14T20:35:24.874Z,13.83
2017-10-14T20:37:51.200Z,12.47
2017-10-14T20:40:18.681Z,14.90
2017-10-14T20:42:46.705Z,17.10
2017-10-14T20:45:13.243Z,13.70
2017-10-14T20:47:41.313Z,14.83
2017-10-14T20:50:07.636Z,14.20
2017-10-14T20:52:34.684Z,14.20
2017-10-14T20:55:01.078Z,13.07
2017-10-14T20:57:28.146Z,13.67
2017-10-14T20:59:55.211Z,12.90
2017-10-14T21:02:21.620Z,13.70
2017-10-14T21:04:47.970Z,11.67
2017-10-14T21:07:15.394Z,13.87
2017-10-14T21:09:41.759Z,11.80
2017-10-14T21:12:08.071Z,12.90
2017-10-14T21:14:35.877Z,12.00
2017-10-14T21:17:02.291Z,15.00
2017-10-14T21:19:30.337Z,12.80
2017-10-14T21:21:56.641Z,11.30
2017-10-14T21:24:24.717Z,12.17
2017-10-14T21:26:51.033Z,13.63
2017-10-14T21:29:18.459Z,12.67
2017-10-14T21:31:45.547Z,13.03
2017-10-14T21:34:12.607Z,13.27
2017-10-14T21:36:38.950Z,15.37
2017-10-14T21:39:06.838Z,12.27
2017-10-14T21:41:33.146Z,12.30
2017-10-14T21:44:00.979Z,12.93
2017-10-14T21:46:27.403Z,15.30
2017-10-14T21:48:55.191Z,12.97
2017-10-14T21:51:23.220Z,12.13
2017-10-14T21:53:49.555Z,12.27
2017-10-14T21:56:16.246Z,12.20
2017-10-14T21:58:42.559Z,15.63
2017-10-14T22:01:08.923Z,15.27
2017-10-14T22:03:36.376Z,14.47
2017-10-14T22:06:02.711Z,17.10
2017-10-14T22:08:29.609Z,18.80
2017-10-14T22:10:56.302Z,20.53
2017-10-14T22:13:23.365Z,28.57
2017-10-14T22:15:51.247Z,28.67
2017-10-14T22:18:17.587Z,24.77
2017-10-14T22:20:44.650Z,32.10
2017-10-14T22:23:11.026Z,43.80
2017-10-14T22:25:38.812Z,36.50
2017-10-14T22:28:05.886Z,29.53
2017-10-14T22:30:33.742Z,28.97
2017-10-14T22:33:00.039Z,27.70
2017-10-14T22:35:26.342Z,28.53
2017-10-14T22:37:53.450Z,31.03
2017-10-14T22:40:19.775Z,25.40
2017-10-14T22:42:46.091Z,30.50
2017-10-14T22:45:14.186Z,29.60
2017-10-14T22:47:43.103Z,30.57
2017-10-14T22:50:10.535Z,31.17
2017-10-14T22:52:36.919Z,35.80
2017-10-14T22:55:03.238Z,36.00
2017-10-14T22:57:31.287Z,30.30
2017-10-14T22:59:57.878Z,35.40
2017-10-14T23:02:24.558Z,34.70
2017-10-14T23:04:50.891Z,27.17
2017-10-14T23:07:17.256Z,24.33
2017-10-14T23:09:43.599Z,25.97
2017-10-14T23:12:09.946Z,40.53
2017-10-14T23:14:37.022Z,36.30
2017-10-14T23:17:04.104Z,36.13
2017-10-14T23:19:33.337Z,32.50
2017-10-14T23:21:59.727Z,24.77
2017-10-14T23:24:26.836Z,33.33
2017-10-14T23:26:54.269Z,27.97
2017-10-14T23:29:20.627Z,27.47
2017-10-14T23:31:46.943Z,23.97
2017-10-14T23:34:14.020Z,25.40
2017-10-14T23:36:41.133Z,24.37
2017-10-14T23:39:08.184Z,18.67
2017-10-14T23:41:35.602Z,16.90
2017-10-14T23:44:02.332Z,17.40
2017-10-14T23:46:28.642Z,19.73
2017-10-14T23:48:55.110Z,14.20
2017-10-14T23:51:22.956Z,18.80
2017-10-14T23:53:49.271Z,20.37
2017-10-14T23:56:15.606Z,19.17
2017-10-14T23:58:41.960Z,15.47
